Time;durP1;ratioP1;P1;durP2;ratioP2;P2;SDS_P1;SDS_P2;PMS_P1;PMS_P2;Temp;Humidity;BMP_temperature;BMP_pressure;BME280_temperature;BME280_humidity;BME280_pressure;Samples;Min_cycle;Max_cycle;Signal;HPM_P1;HPM_P2
2021/10/17 00:00:52;;;;;;;20.00;13.32;;;6.80;99.90;;;;;;4994943;28;20057;-78
2021/10/17 00:03:19;;;;;;;27.35;14.50;;;6.70;99.90;;;;;;4995145;28;20115;-79
2021/10/17 00:05:46;;;;;;;26.90;14.93;;;6.60;99.90;;;;;;4994399;28;20050;-78
2021/10/17 00:08:13;;;;;;;22.17;13.57;;;6.50;99.90;;;;;;4995276;28;20189;-78
2021/10/17 00:10:40;;;;;;;28.67;16.05;;;6.60;99.90;;;;;;4996453;28;20142;-78
2021/10/17 00:13:10;;;;;;;23.48;13.73;;;6.60;99.90;;;;;;4996940;28;20086;-78
2021/10/17 00:15:38;;;;;;;24.15;13.85;;;6.60;99.90;;;;;;4996260;28;20088;-77
2021/10/17 00:18:07;;;;;;;20.25;12.00;;;6.60;99.90;;;;;;4994524;28;20579;-79
2021/10/17 00:20:34;;;;;;;24.55;12.13;;;6.50;99.90;;;;;;4994434;28;20050;-78
2021/10/17 00:23:01;;;;;;;19.98;12.45;;;6.40;99.90;;;;;;4994229;28;20046;-78
2021/10/17 00:25:28;;;;;;;25.00;13.23;;;6.40;99.90;;;;;;4993948;28;20053;-78
2021/10/17 00:27:55;;;;;;;23.10;13.32;;;6.40;99.90;;;;;;4995809;28;20141;-78
2021/10/17 00:30:24;;;;;;;25.33;13.63;;;6.40;99.90;;;;;;5002299;28;20046;-78
2021/10/17 00:32:51;;;;;;;27.02;14.88;;;6.40;99.90;;;;;;4995778;28;20069;-78
2021/10/17 00:35:18;;;;;;;29.33;14.10;;;6.40;99.90;;;;;;4995678;28;20053;-78
2021/10/17 00:37:45;;;;;;;29.13;15.98;;;6.40;99.90;;;;;;4998814;28;20082;-77
2021/10/17 00:40:14;;;;;;;30.02;15.52;;;6.40;99.90;;;;;;4996269;28;20153;-78
2021/10/17 00:42:42;;;;;;;25.05;14.98;;;6.40;99.90;;;;;;4994300;28;20133;-77
2021/10/17 00:45:12;;;;;;;25.10;14.32;;;6.40;99.90;;;;;;4993786;28;20050;-77
2021/10/17 00:47:40;;;;;;;26.92;15.27;;;6.40;99.90;;;;;;4993383;28;20137;-77
2021/10/17 00:50:10;;;;;;;28.17;15.82;;;6.40;99.90;;;;;;4993614;28;20423;-77
2021/10/17 00:52:38;;;;;;;24.45;14.48;;;6.40;99.90;;;;;;4992796;28;20161;-77
2021/10/17 00:55:06;;;;;;;28.08;14.55;;;6.30;99.90;;;;;;4992836;28;20053;-78
2021/10/17 00:57:33;;;;;;;25.98;14.77;;;6.30;99.90;;;;;;4993232;28;20134;-78
2021/10/17 01:00:00;;;;;;;25.65;14.88;;;6.20;99.90;;;;;;4993223;28;20515;-78
2021/10/17 01:02:27;;;;;;;27.48;15.20;;;6.10;99.90;;;;;;4992867;28;20046;-78
2021/10/17 01:04:55;;;;;;;25.85;15.35;;;6.00;99.90;;;;;;4992594;28;20104;-78
2021/10/17 01:07:23;;;;;;;27.75;16.23;;;6.00;99.90;;;;;;4993157;28;20133;-78
2021/10/17 01:09:50;;;;;;;28.50;16.27;;;6.00;99.90;;;;;;4993024;28;20046;-77
2021/10/17 01:12:17;;;;;;;30.92;17.98;;;5.90;99.90;;;;;;4992763;28;20575;-77
2021/10/17 01:14:44;;;;;;;36.72;18.38;;;5.80;99.90;;;;;;4992944;28;20050;-77
2021/10/17 01:17:11;;;;;;;34.63;18.52;;;5.80;99.90;;;;;;4992663;28;20077;-77
2021/10/17 01:19:38;;;;;;;28.58;18.27;;;5.80;99.90;;;;;;4992652;28;20496;-76
2021/10/17 01:22:06;;;;;;;33.67;17.70;;;5.80;99.90;;;;;;4992881;28;20046;-76
2021/10/17 01:24:33;;;;;;;30.08;18.15;;;5.80;99.90;;;;;;4992795;28;20137;-76
2021/10/17 01:27:00;;;;;;;32.63;18.42;;;5.90;99.90;;;;;;4992553;28;20149;-78
2021/10/17 01:29:27;;;;;;;29.02;18.20;;;5.90;99.90;;;;;;4992814;28;20054;-77
2021/10/17 01:31:56;;;;;;;35.75;18.50;;;6.00;99.90;;;;;;4992557;28;20081;-76
2021/10/17 01:34:25;;;;;;;34.20;18.83;;;6.10;99.90;;;;;;4992949;28;20138;-77
2021/10/17 01:36:53;;;;;;;32.40;18.45;;;6.10;99.90;;;;;;4992462;28;20263;-77
2021/10/17 01:39:23;;;;;;;39.30;20.00;;;6.10;99.90;;;;;;4993029;28;20065;-77
2021/10/17 01:41:51;;;;;;;35.08;19.52;;;6.20;99.90;;;;;;4992709;28;20137;-77
2021/10/17 01:44:27;;;;;;;27.73;17.90;;;6.20;99.90;;;;;;4993639;28;20168;-78
2021/10/17 01:46:55;;;;;;;37.85;20.05;;;6.20;99.90;;;;;;4995523;28;20591;-77
2021/10/17 01:49:22;;;;;;;32.80;18.80;;;6.20;99.90;;;;;;4993017;28;20478;-78
2021/10/17 01:51:49;;;;;;;34.22;19.35;;;6.20;99.90;;;;;;4993030;28;20538;-78
2021/10/17 01:54:16;;;;;;;31.92;19.17;;;6.20;99.90;;;;;;4992731;28;20500;-77
2021/10/17 01:56:45;;;;;;;33.25;18.88;;;6.20;99.90;;;;;;4992760;28;20129;-77
2021/10/17 01:59:12;;;;;;;29.38;18.73;;;6.20;99.90;;;;;;4992822;28;20066;-77
2021/10/17 02:01:38;;;;;;;30.63;19.40;;;6.20;99.90;;;;;;4993181;28;20432;-77
2021/10/17 02:04:05;;;;;;;30.48;19.52;;;6.10;99.90;;;;;;4994043;28;20050;-77
2021/10/17 02:06:33;;;;;;;35.33;18.85;;;6.00;99.90;;;;;;4996148;28;20081;-77
2021/10/17 02:09:02;;;;;;;31.45;19.15;;;5.90;99.90;;;;;;4996348;28;20090;-77
2021/10/17 02:11:29;;;;;;;34.03;20.38;;;5.90;99.90;;;;;;4996042;28;20473;-77
2021/10/17 02:13:57;;;;;;;41.42;19.00;;;6.00;99.90;;;;;;4996291;28;20046;-77
2021/10/17 02:16:24;;;;;;;35.15;19.88;;;6.00;99.90;;;;;;4995835;28;20050;-76
2021/10/17 02:18:51;;;;;;;31.20;19.48;;;5.90;99.90;;;;;;4996150;28;20062;-77
2021/10/17 02:21:18;;;;;;;33.67;20.77;;;5.90;99.90;;;;;;4995936;28;20516;-76
2021/10/17 02:23:45;;;;;;;31.30;19.90;;;5.90;99.90;;;;;;4996136;28;20052;-76
2021/10/17 02:26:12;;;;;;;34.25;20.65;;;5.80;99.90;;;;;;4995225;28;20414;-77
2021/10/17 02:28:38;;;;;;;30.10;19.48;;;5.60;99.90;;;;;;4995807;28;20132;-77
2021/10/17 02:31:07;;;;;;;36.85;20.15;;;5.50;99.90;;;;;;4995779;28;20140;-76
2021/10/17 02:33:34;;;;;;;37.13;19.08;;;5.30;99.90;;;;;;4995647;28;20046;-76
2021/10/17 02:36:01;;;;;;;31.45;21.35;;;5.20;99.90;;;;;;4995342;28;20084;-76
2021/10/17 02:38:28;;;;;;;31.77;21.13;;;5.20;99.90;;;;;;4995635;28;20431;-76
2021/10/17 02:40:56;;;;;;;39.22;21.27;;;5.30;99.90;;;;;;4995652;28;20046;-76
2021/10/17 02:43:22;;;;;;;32.08;21.10;;;5.20;99.90;;;;;;4995251;28;20141;-76
2021/10/17 02:45:51;;;;;;;39.30;21.63;;;5.30;99.90;;;;;;4995080;28;20057;-78
2021/10/17 02:48:20;;;;;;;35.17;21.95;;;5.30;99.90;;;;;;4995671;28;20564;-77
2021/10/17 02:50:47;;;;;;;29.92;19.58;;;5.40;99.90;;;;;;4995219;28;20051;-77
2021/10/17 02:53:13;;;;;;;38.72;21.00;;;5.50;99.90;;;;;;4995332;28;20056;-77
2021/10/17 02:55:40;;;;;;;32.90;19.63;;;5.50;99.90;;;;;;4995174;28;20047;-77
2021/10/17 02:58:07;;;;;;;33.83;21.00;;;5.50;99.90;;;;;;4995743;28;20050;-77
2021/10/17 03:00:34;;;;;;;31.83;21.38;;;5.50;99.90;;;;;;4995129;28;20521;-76
2021/10/17 03:03:01;;;;;;;31.35;21.33;;;5.50;99.90;;;;;;4995133;28;20129;-76
2021/10/17 03:05:29;;;;;;;30.65;19.90;;;5.50;99.90;;;;;;4993623;28;20046;-77
2021/10/17 03:07:56;;;;;;;32.50;20.35;;;5.50;99.90;;;;;;4994769;28;20082;-77
2021/10/17 03:10:23;;;;;;;31.55;20.13;;;5.50;99.90;;;;;;4994910;28;20057;-78
2021/10/17 03:12:50;;;;;;;28.02;18.08;;;5.40;99.90;;;;;;4995012;28;20097;-77
2021/10/17 03:15:17;;;;;;;29.40;17.50;;;5.40;99.90;;;;;;4994564;28;20135;-77
2021/10/17 03:17:44;;;;;;;27.88;17.77;;;5.40;99.90;;;;;;4995380;28;20078;-77
2021/10/17 03:20:12;;;;;;;34.45;19.15;;;5.30;99.90;;;;;;4991420;28;20046;-77
2021/10/17 03:22:41;;;;;;;34.78;21.15;;;5.20;99.90;;;;;;4994369;28;20501;-76
2021/10/17 03:25:08;;;;;;;35.90;20.63;;;5.20;99.90;;;;;;4993675;28;20104;-77
2021/10/17 03:27:35;;;;;;;37.80;20.20;;;5.20;99.90;;;;;;4993515;28;20057;-77
2021/10/17 03:30:02;;;;;;;39.90;21.33;;;5.10;99.90;;;;;;4994653;28;20077;-77
2021/10/17 03:32:29;;;;;;;48.45;21.45;;;5.10;99.90;;;;;;4993950;28;20054;-77
2021/10/17 03:34:56;;;;;;;44.58;20.60;;;5.00;99.90;;;;;;4994475;28;20053;-78
2021/10/17 03:37:23;;;;;;;41.45;21.33;;;5.00;99.90;;;;;;4994272;28;20128;-77
2021/10/17 03:39:51;;;;;;;34.17;20.70;;;5.00;99.90;;;;;;4995475;28;20109;-77
2021/10/17 03:42:18;;;;;;;36.67;21.70;;;5.00;99.90;;;;;;4993490;28;20088;-77
2021/10/17 03:44:45;;;;;;;29.83;20.27;;;5.00;99.90;;;;;;4994972;28;20133;-79
2021/10/17 03:47:12;;;;;;;31.02;20.17;;;5.10;99.90;;;;;;4993910;28;20054;-77
2021/10/17 03:49:40;;;;;;;34.97;22.88;;;5.10;99.90;;;;;;4993823;28;20085;-78
2021/10/17 03:52:07;;;;;;;43.17;24.92;;;5.10;99.90;;;;;;4993252;28;20057;-77
2021/10/17 03:54:34;;;;;;;35.67;22.80;;;5.10;99.90;;;;;;4993003;28;20362;-77
2021/10/17 03:57:02;;;;;;;42.85;22.42;;;5.10;99.90;;;;;;4994288;28;20070;-78
2021/10/17 03:59:29;;;;;;;34.55;20.85;;;5.10;99.90;;;;;;4994118;28;20104;-77
2021/10/17 04:01:56;;;;;;;33.70;21.15;;;5.20;99.90;;;;;;4993269;28;20046;-79
2021/10/17 04:04:23;;;;;;;34.80;21.73;;;5.20;99.90;;;;;;4994542;28;20050;-78
2021/10/17 04:06:50;;;;;;;44.45;24.38;;;5.20;99.90;;;;;;4996692;28;20077;-77
2021/10/17 04:09:17;;;;;;;37.30;21.10;;;5.20;99.90;;;;;;4993703;28;20488;-77
2021/10/17 04:11:46;;;;;;;41.13;23.42;;;5.20;99.90;;;;;;4992835;28;20107;-77
2021/10/17 04:14:15;;;;;;;35.15;22.77;;;5.20;99.90;;;;;;4993021;28;20054;-78
2021/10/17 04:16:42;;;;;;;35.17;24.08;;;5.20;99.90;;;;;;4993405;28;20050;-78
2021/10/17 04:19:08;;;;;;;55.78;36.60;;;5.20;99.90;;;;;;4993670;28;20056;-78
2021/10/17 04:21:35;;;;;;;37.67;22.08;;;5.20;99.90;;;;;;4988214;28;20057;-77
2021/10/17 04:24:02;;;;;;;45.15;28.10;;;5.20;99.90;;;;;;4989842;28;20430;-79
2021/10/17 04:26:29;;;;;;;42.70;27.55;;;5.30;99.90;;;;;;4988322;28;20167;-78
2021/10/17 04:28:56;;;;;;;40.25;24.77;;;5.30;99.90;;;;;;4992579;28;20052;-78
2021/10/17 04:31:24;;;;;;;35.63;20.17;;;5.30;99.90;;;;;;4990093;28;20054;-78
2021/10/17 04:33:51;;;;;;;34.92;19.73;;;5.20;99.90;;;;;;4990198;28;20054;-77
2021/10/17 04:36:18;;;;;;;37.90;20.75;;;5.30;99.90;;;;;;4991998;28;20046;-80
2021/10/17 04:38:45;;;;;;;37.63;19.83;;;5.20;99.90;;;;;;4993373;28;20141;-78
2021/10/17 04:41:13;;;;;;;33.97;20.00;;;5.10;99.90;;;;;;4989518;28;20534;-78
2021/10/17 04:43:40;;;;;;;34.03;20.05;;;5.10;99.90;;;;;;4989007;28;20060;-77
2021/10/17 04:46:09;;;;;;;35.40;20.83;;;5.10;99.90;;;;;;5016113;23;20041;-80
2021/10/17 04:48:37;;;;;;;41.35;21.83;;;5.00;99.90;;;;;;5021562;28;20081;-79
2021/10/17 04:51:04;;;;;;;39.97;22.33;;;5.00;99.90;;;;;;5020596;28;20046;-80
2021/10/17 04:53:30;;;;;;;36.58;21.80;;;5.00;99.90;;;;;;5022576;28;20054;-80
2021/10/17 04:55:57;;;;;;;40.85;20.08;;;5.10;99.90;;;;;;5020689;28;20050;-79
2021/10/17 04:58:26;;;;;;;42.15;25.58;;;5.10;99.90;;;;;;5020986;28;20081;-80
2021/10/17 05:00:56;;;;;;;47.42;29.15;;;5.00;99.90;;;;;;5021973;28;20050;-79
2021/10/17 05:03:23;;;;;;;42.00;27.42;;;5.10;99.90;;;;;;5020521;28;20085;-79
2021/10/17 05:05:51;;;;;;;70.30;46.30;;;5.10;99.90;;;;;;5018387;28;20478;-79
2021/10/17 05:08:18;;;;;;;43.97;29.92;;;5.10;99.90;;;;;;5015341;28;20104;-78
2021/10/17 05:10:45;;;;;;;41.35;23.77;;;5.10;99.90;;;;;;5015765;28;20136;-79
2021/10/17 05:13:12;;;;;;;37.55;23.38;;;5.10;99.90;;;;;;5015743;28;20137;-79
2021/10/17 05:15:40;;;;;;;40.53;21.67;;;5.10;99.90;;;;;;5015195;28;20144;-79
2021/10/17 05:18:07;;;;;;;35.72;21.75;;;5.00;99.90;;;;;;5015049;28;20152;-79
2021/10/17 05:20:34;;;;;;;36.50;21.85;;;4.90;99.90;;;;;;5014962;28;20091;-79
2021/10/17 05:23:02;;;;;;;43.92;21.45;;;4.90;99.90;;;;;;5015493;28;20368;-78
2021/10/17 05:25:29;;;;;;;38.38;22.33;;;4.90;99.90;;;;;;5015170;28;20073;-79
2021/10/17 05:27:56;;;;;;;38.83;21.13;;;5.00;99.90;;;;;;5016554;28;20411;-78
2021/10/17 05:30:23;;;;;;;41.10;23.55;;;5.00;99.90;;;;;;5021434;28;20054;-80
2021/10/17 05:32:50;;;;;;;38.95;23.50;;;4.90;99.90;;;;;;5021561;28;20133;-79
2021/10/17 05:35:17;;;;;;;38.55;23.13;;;4.90;99.90;;;;;;5020901;28;20085;-80
2021/10/17 05:37:44;;;;;;;40.92;22.45;;;4.90;99.90;;;;;;5022941;28;20045;-80
2021/10/17 05:40:12;;;;;;;36.33;22.20;;;4.80;99.90;;;;;;5025343;28;20054;-79
2021/10/17 05:42:39;;;;;;;26.77;20.25;;;4.70;99.90;;;;;;5024545;28;20575;-79
2021/10/17 05:45:07;;;;;;;35.13;21.35;;;4.80;99.90;;;;;;5020494;28;20522;-79
2021/10/17 05:47:35;;;;;;;37.70;22.42;;;4.80;99.90;;;;;;5020527;28;20050;-78
2021/10/17 05:50:02;;;;;;;38.22;24.27;;;4.70;99.90;;;;;;5020274;28;20046;-78
2021/10/17 05:52:29;;;;;;;38.20;22.33;;;4.60;99.90;;;;;;5019478;28;20168;-79
2021/10/17 05:54:57;;;;;;;46.28;23.60;;;4.70;99.90;;;;;;5019455;28;20137;-78
2021/10/17 05:57:25;;;;;;;39.13;23.92;;;4.70;99.90;;;;;;5020662;28;20048;-78
2021/10/17 05:59:52;;;;;;;42.47;24.98;;;4.70;99.90;;;;;;5022405;28;20085;-78
2021/10/17 06:02:19;;;;;;;40.13;24.10;;;4.80;99.90;;;;;;5024969;28;20054;-79
2021/10/17 06:04:46;;;;;;;41.60;24.52;;;4.70;99.90;;;;;;5025628;28;20085;-78
2021/10/17 06:07:13;;;;;;;44.67;24.42;;;4.80;99.90;;;;;;5025204;28;20194;-78
2021/10/17 06:09:40;;;;;;;38.17;23.83;;;4.80;99.90;;;;;;5025423;28;20128;-80
2021/10/17 06:12:08;;;;;;;43.92;25.60;;;4.80;99.90;;;;;;5024631;28;20116;-79
2021/10/17 06:14:37;;;;;;;39.63;24.23;;;4.80;99.90;;;;;;5025993;28;20638;-79
2021/10/17 06:17:04;;;;;;;44.10;27.85;;;4.80;99.90;;;;;;5031003;28;20097;-79
2021/10/17 06:19:31;;;;;;;46.80;26.05;;;4.80;99.90;;;;;;5023246;28;20085;-78
2021/10/17 06:22:02;;;;;;;48.38;27.83;;;4.90;99.90;;;;;;5023598;28;20081;-79
2021/10/17 06:24:31;;;;;;;46.75;26.83;;;5.00;99.90;;;;;;5025242;28;20058;-79
2021/10/17 06:26:58;;;;;;;47.17;27.60;;;5.00;99.90;;;;;;5024180;28;20049;-79
2021/10/17 06:29:25;;;;;;;50.72;27.98;;;5.10;99.90;;;;;;5024964;28;20054;-79
2021/10/17 06:31:53;;;;;;;46.30;26.75;;;5.20;99.90;;;;;;5024576;28;20084;-79
2021/10/17 06:34:20;;;;;;;41.58;25.00;;;5.30;99.90;;;;;;5024462;28;20088;-79
2021/10/17 06:36:48;;;;;;;41.40;24.23;;;5.40;99.90;;;;;;5024154;28;20099;-78
2021/10/17 06:39:15;;;;;;;41.20;23.85;;;5.50;99.90;;;;;;5020161;28;20073;-78
2021/10/17 06:41:42;;;;;;;32.78;21.52;;;5.60;99.90;;;;;;5023770;28;20138;-79
2021/10/17 06:44:09;;;;;;;38.83;24.75;;;5.80;99.90;;;;;;5024811;28;20324;-79
2021/10/17 06:46:36;;;;;;;34.05;21.38;;;6.00;99.90;;;;;;5022846;28;20110;-78
2021/10/17 06:49:04;;;;;;;30.77;19.05;;;6.30;99.90;;;;;;5021738;28;20118;-79
2021/10/17 06:51:31;;;;;;;28.73;18.70;;;6.40;99.90;;;;;;5018917;28;20129;-78
2021/10/17 06:53:58;;;;;;;27.73;17.60;;;6.50;99.90;;;;;;5017672;28;20124;-77
2021/10/17 06:56:25;;;;;;;31.23;18.23;;;6.70;99.90;;;;;;5017222;28;20056;-78
2021/10/17 06:58:52;;;;;;;24.83;17.33;;;6.90;99.90;;;;;;5017313;28;20136;-78
2021/10/17 07:01:18;;;;;;;27.00;16.67;;;7.10;99.90;;;;;;5016981;28;20065;-79
2021/10/17 07:03:45;;;;;;;28.88;15.90;;;7.20;99.90;;;;;;5017251;28;20136;-79
2021/10/17 07:06:14;;;;;;;34.13;17.17;;;7.50;99.90;;;;;;5016356;28;20050;-78
2021/10/17 07:08:41;;;;;;;28.65;18.17;;;7.90;99.90;;;;;;5016793;28;20046;-78
2021/10/17 07:11:08;;;;;;;23.50;15.27;;;8.20;99.90;;;;;;5017550;28;20130;-77
2021/10/17 07:13:35;;;;;;;26.45;15.75;;;8.40;99.90;;;;;;5016152;28;20046;-78
2021/10/17 07:16:02;;;;;;;23.73;14.52;;;8.30;99.90;;;;;;5017238;28;20046;-78
2021/10/17 07:18:29;;;;;;;26.40;15.25;;;8.70;99.90;;;;;;5015991;28;20221;-78
2021/10/17 07:20:56;;;;;;;26.67;15.15;;;8.90;99.90;;;;;;5017378;28;20136;-78
2021/10/17 07:23:24;;;;;;;25.60;16.45;;;9.20;99.90;;;;;;5017548;28;20072;-75
2021/10/17 07:25:51;;;;;;;26.48;16.38;;;9.50;99.90;;;;;;5019823;28;20117;-78
2021/10/17 07:28:18;;;;;;;20.55;15.05;;;9.50;99.90;;;;;;5019195;28;20136;-78
2021/10/17 07:30:47;;;;;;;25.55;14.77;;;9.60;99.90;;;;;;5016135;28;20552;-77
2021/10/17 07:33:14;;;;;;;20.70;13.38;;;9.70;99.90;;;;;;5014659;28;20338;-78
2021/10/17 07:35:41;;;;;;;19.13;13.18;;;9.70;99.90;;;;;;5015359;28;20148;-78
2021/10/17 07:38:08;;;;;;;20.95;12.23;;;9.80;99.90;;;;;;5019362;28;20455;-79
2021/10/17 07:40:36;;;;;;;20.90;14.13;;;9.80;99.90;;;;;;5020355;28;20084;-80
2021/10/17 07:43:03;;;;;;;22.65;16.05;;;9.80;99.90;;;;;;5020291;28;20133;-80
2021/10/17 07:45:32;;;;;;;22.25;14.65;;;9.70;99.90;;;;;;5020793;28;20088;-79
2021/10/17 07:47:59;;;;;;;21.48;13.40;;;9.80;99.90;;;;;;5019234;28;20132;-80
2021/10/17 07:50:26;;;;;;;16.98;12.35;;;9.90;99.90;;;;;;5017534;28;20132;-79
2021/10/17 07:52:53;;;;;;;19.98;13.95;;;9.90;99.90;;;;;;5017765;28;20056;-79
2021/10/17 07:55:19;;;;;;;26.15;20.05;;;9.90;99.90;;;;;;5016881;28;20105;-80
2021/10/17 07:57:49;;;;;;;17.35;12.35;;;9.90;99.90;;;;;;5014966;28;20061;-78
2021/10/17 08:00:20;;;;;;;17.90;12.07;;;10.10;99.90;;;;;;5023836;28;20602;-80
2021/10/17 08:02:47;;;;;;;17.33;12.85;;;10.00;99.90;;;;;;5025316;28;20045;-78
2021/10/17 08:05:14;;;;;;;19.60;12.88;;;10.00;99.90;;;;;;5024602;28;20132;-79
2021/10/17 08:07:41;;;;;;;21.70;13.40;;;10.10;99.90;;;;;;5016369;28;20571;-78
2021/10/17 08:10:09;;;;;;;18.13;12.88;;;10.20;99.90;;;;;;5015014;28;20168;-80
2021/10/17 08:12:36;;;;;;;23.77;13.63;;;10.20;99.90;;;;;;5023871;28;20085;-78
2021/10/17 08:15:06;;;;;;;21.05;13.52;;;10.10;99.90;;;;;;5019832;28;20148;-79
2021/10/17 08:17:33;;;;;;;19.00;13.35;;;10.00;99.90;;;;;;5019300;28;20121;-79
2021/10/17 08:20:01;;;;;;;20.38;13.00;;;10.20;99.90;;;;;;5018449;28;20499;-78
2021/10/17 08:22:27;;;;;;;17.65;12.85;;;10.40;99.90;;;;;;5016634;28;20096;-78
2021/10/17 08:24:54;;;;;;;21.70;13.93;;;10.70;99.90;;;;;;5015348;28;20567;-80
2021/10/17 08:27:21;;;;;;;13.68;11.43;;;11.00;99.90;;;;;;5017076;28;20092;-79
2021/10/17 08:29:48;;;;;;;19.33;13.52;;;11.20;99.90;;;;;;5016352;28;20109;-79
2021/10/17 08:32:17;;;;;;;19.55;12.57;;;11.30;99.90;;;;;;5017109;28;20089;-78
2021/10/17 08:34:43;;;;;;;18.13;12.90;;;11.30;99.90;;;;;;5012032;28;20057;-79
2021/10/17 08:37:11;;;;;;;17.83;13.20;;;11.00;99.90;;;;;;5008583;28;20526;-78
2021/10/17 08:39:38;;;;;;;40.20;27.52;;;10.90;99.90;;;;;;5015773;28;20050;-79
2021/10/17 08:42:06;;;;;;;23.52;16.13;;;10.80;99.90;;;;;;5018308;28;20561;-80
2021/10/17 08:44:33;;;;;;;21.75;15.57;;;10.90;99.90;;;;;;5017709;28;20050;-79
2021/10/17 08:47:01;;;;;;;20.38;14.32;;;10.90;99.90;;;;;;5015570;28;20132;-79
2021/10/17 08:49:29;;;;;;;21.73;14.02;;;11.10;99.90;;;;;;5017391;28;20052;-79
2021/10/17 08:51:56;;;;;;;25.05;14.13;;;11.20;99.90;;;;;;5017410;28;20096;-79
2021/10/17 08:54:23;;;;;;;20.88;14.82;;;11.20;99.90;;;;;;5017654;28;20054;-79
2021/10/17 08:56:50;;;;;;;21.77;12.88;;;11.30;99.90;;;;;;5018395;28;20060;-81
2021/10/17 08:59:17;;;;;;;19.48;13.85;;;11.50;99.90;;;;;;5019263;28;20073;-80
2021/10/17 09:01:44;;;;;;;20.83;13.65;;;11.50;99.90;;;;;;5019564;28;20088;-80
2021/10/17 09:04:14;;;;;;;23.33;13.32;;;11.60;99.90;;;;;;5018487;28;20467;-80
2021/10/17 09:06:46;;;;;;;23.23;15.00;;;11.60;99.90;;;;;;5018724;28;20078;-79
2021/10/17 09:09:18;;;;;;;22.17;14.67;;;11.50;99.90;;;;;;5020814;28;20054;-79
2021/10/17 09:11:47;;;;;;;22.87;13.90;;;11.60;99.90;;;;;;5019979;28;20069;-80
2021/10/17 09:14:16;;;;;;;27.77;15.68;;;11.50;99.90;;;;;;5017968;28;20050;-80
2021/10/17 09:16:45;;;;;;;28.48;14.32;;;11.40;99.90;;;;;;5018164;28;20127;-80
2021/10/17 09:19:14;;;;;;;23.08;14.15;;;11.50;99.90;;;;;;5017616;28;20108;-81
2021/10/17 09:21:56;;;;;;;21.58;13.45;;;11.40;99.90;;;;;;5017886;28;20133;-79
2021/10/17 09:24:28;;;;;;;23.10;14.50;;;11.40;99.90;;;;;;5018651;28;20136;-81
2021/10/17 09:27:13;;;;;;;22.77;13.10;;;11.30;99.90;;;;;;5018493;28;20164;-80
2021/10/17 09:29:42;;;;;;;25.30;13.63;;;11.40;99.90;;;;;;5019187;28;20050;-81
2021/10/17 09:32:15;;;;;;;20.52;13.65;;;11.40;99.90;;;;;;5019622;28;20128;-81
2021/10/17 09:34:52;;;;;;;18.02;13.38;;;11.40;99.90;;;;;;5019224;28;20116;-79
2021/10/17 09:37:21;;;;;;;21.55;13.63;;;11.60;99.90;;;;;;5020468;28;20077;-79
2021/10/17 09:40:02;;;;;;;25.33;13.77;;;11.60;99.90;;;;;;5019479;28;20052;-81
2021/10/17 09:42:36;;;;;;;20.00;12.95;;;11.70;99.90;;;;;;5020608;28;20054;-80
2021/10/17 09:45:03;;;;;;;23.80;14.07;;;11.90;99.90;;;;;;5019482;28;20085;-81
2021/10/17 09:47:48;;;;;;;21.33;13.70;;;12.00;99.90;;;;;;5019664;28;20124;-81
2021/10/17 09:50:19;;;;;;;25.48;14.05;;;12.10;99.90;;;;;;5019730;28;20084;-80
2021/10/17 09:53:03;;;;;;;20.90;12.93;;;12.20;99.90;;;;;;5020256;28;20201;-80
2021/10/17 09:55:31;;;;;;;20.02;12.70;;;12.20;99.90;;;;;;5020429;28;20057;-80
2021/10/17 09:57:58;;;;;;;19.83;12.80;;;12.20;99.90;;;;;;5020375;28;20114;-80
2021/10/17 10:00:25;;;;;;;20.75;12.57;;;12.30;99.90;;;;;;5020678;28;20073;-81
2021/10/17 10:02:54;;;;;;;19.63;12.88;;;12.30;99.90;;;;;;5019941;28;20050;-80
2021/10/17 10:05:24;;;;;;;20.63;12.18;;;12.30;99.90;;;;;;5019169;28;20118;-80
2021/10/17 10:07:53;;;;;;;16.35;12.27;;;12.30;99.90;;;;;;5019213;28;20521;-80
2021/10/17 10:10:22;;;;;;;21.48;12.20;;;12.30;99.90;;;;;;5018264;28;20140;-79
2021/10/17 10:12:51;;;;;;;17.48;11.05;;;12.40;99.90;;;;;;5019034;28;20058;-79
2021/10/17 10:15:18;;;;;;;17.50;11.93;;;12.60;99.90;;;;;;5019520;28;20108;-79
2021/10/17 10:17:46;;;;;;;17.30;11.30;;;12.70;99.90;;;;;;5018376;28;20472;-80
2021/10/17 10:20:14;;;;;;;22.10;12.27;;;12.90;99.90;;;;;;5019041;28;20551;-80
2021/10/17 10:22:43;;;;;;;17.80;11.88;;;13.00;99.90;;;;;;5019656;28;20065;-79
2021/10/17 10:25:11;;;;;;;17.33;11.32;;;13.20;99.90;;;;;;5021035;28;20053;-81
2021/10/17 10:27:40;;;;;;;19.80;11.88;;;13.30;99.90;;;;;;5023566;28;20050;-80
2021/10/17 10:30:24;;;;;;;15.75;10.80;;;13.40;99.90;;;;;;5023165;28;20120;-80
2021/10/17 10:33:15;;;;;;;22.35;11.00;;;13.50;99.90;;;;;;5021663;28;20431;-80
2021/10/17 10:36:02;;;;;;;20.52;9.98;;;13.60;99.90;;;;;;5020442;28;20476;-80
2021/10/17 10:39:16;;;;;;;16.75;9.88;;;13.80;99.90;;;;;;5020873;28;20046;-81
2021/10/17 10:41:56;;;;;;;15.02;9.43;;;13.90;99.90;;;;;;5021002;28;20066;-80
2021/10/17 10:44:26;;;;;;;17.30;10.10;;;13.90;99.90;;;;;;5021152;28;20534;-80
2021/10/17 10:46:55;;;;;;;11.35;8.45;;;14.00;99.90;;;;;;5030904;23;20141;-79
2021/10/17 10:49:42;;;;;;;12.60;8.30;;;14.10;99.90;;;;;;4991514;28;20049;-79
2021/10/17 10:52:11;;;;;;;13.05;8.48;;;14.20;99.90;;;;;;4980550;28;20133;-79
2021/10/17 10:54:38;;;;;;;13.48;9.15;;;14.30;99.90;;;;;;4979742;28;20133;-79
2021/10/17 10:57:20;;;;;;;15.95;9.38;;;14.10;99.90;;;;;;4978277;28;20138;-78
2021/10/17 11:00:02;;;;;;;13.43;9.68;;;13.90;99.90;;;;;;4977858;28;20042;-78
2021/10/17 11:02:29;;;;;;;15.57;9.40;;;13.90;99.90;;;;;;4978383;28;20138;-80
2021/10/17 11:04:58;;;;;;;13.07;8.93;;;14.00;99.90;;;;;;4979402;28;20142;-78
2021/10/17 11:07:31;;;;;;;16.02;8.80;;;14.10;99.90;;;;;;4976161;28;20445;-77
2021/10/17 11:10:35;;;;;;;12.25;7.75;;;14.20;99.90;;;;;;4976770;28;20054;-78
2021/10/17 11:13:03;;;;;;;;;;;14.40;99.90;;;;;;4978841;28;20134;-79
2021/10/17 11:15:33;;;;;;;10.98;7.90;;;14.50;99.90;;;;;;4977350;28;19928;-78
2021/10/17 11:18:03;;;;;;;15.85;9.95;;;14.50;99.90;;;;;;4977019;28;20119;-81
2021/10/17 11:20:32;;;;;;;14.18;9.35;;;14.60;99.90;;;;;;5002730;28;20133;-79
2021/10/17 11:23:00;;;;;;;13.90;9.27;;;14.70;99.90;;;;;;5003806;28;20351;-79
2021/10/17 11:25:29;;;;;;;18.33;10.15;;;14.70;99.90;;;;;;4994260;28;20260;-79
2021/10/17 11:27:56;;;;;;;16.13;10.30;;;14.70;99.90;;;;;;4992367;28;20057;-78
2021/10/17 11:30:26;;;;;;;14.27;10.15;;;14.80;99.90;;;;;;4992625;28;20121;-78
2021/10/17 11:32:54;;;;;;;15.55;9.40;;;14.90;99.90;;;;;;4989947;28;20077;-78
2021/10/17 11:35:27;;;;;;;14.88;8.93;;;14.90;99.90;;;;;;4991717;28;20042;-78
2021/10/17 11:37:54;;;;;;;17.02;9.88;;;14.90;99.90;;;;;;4989291;28;20149;-78
2021/10/17 11:40:22;;;;;;;18.77;10.35;;;14.80;99.90;;;;;;4995532;28;20050;-80
2021/10/17 11:42:50;;;;;;;13.65;9.95;;;14.70;99.90;;;;;;4997866;28;20101;-79
2021/10/17 11:45:19;;;;;;;17.50;9.30;;;14.90;99.90;;;;;;4989551;28;20134;-79
2021/10/17 11:47:47;;;;;;;16.02;9.57;;;15.00;99.90;;;;;;4984308;28;20571;-78
2021/10/17 11:50:19;;;;;;;17.65;9.02;;;15.10;99.90;;;;;;4989485;28;20056;-79
2021/10/17 11:52:53;;;;;;;15.40;9.13;;;15.20;99.90;;;;;;4996856;28;20074;-79
2021/10/17 11:55:31;;;;;;;13.82;8.18;;;15.30;99.90;;;;;;4995260;28;20133;-79
2021/10/17 11:57:58;;;;;;;14.82;9.32;;;15.40;99.90;;;;;;4974663;28;20047;-78
2021/10/17 12:00:26;;;;;;;17.50;9.77;;;15.40;99.90;;;;;;4976592;28;20057;-78
2021/10/17 12:02:54;;;;;;;16.55;9.60;;;15.50;99.90;;;;;;4974202;28;20050;-79
2021/10/17 12:05:24;;;;;;;16.05;10.65;;;15.60;99.90;;;;;;4975599;28;20082;-79
2021/10/17 12:07:54;;;;;;;17.20;9.70;;;15.70;99.90;;;;;;4976630;28;20429;-79
2021/10/17 12:10:22;;;;;;;12.07;7.45;;;15.70;99.90;;;;;;4977498;28;20142;-80
2021/10/17 12:12:49;;;;;;;11.73;7.47;;;15.60;99.90;;;;;;4980337;28;20082;-80
2021/10/17 12:15:17;;;;;;;8.15;5.82;;;15.60;99.90;;;;;;4980015;28;20519;-79
2021/10/17 12:17:44;;;;;;;7.47;5.45;;;15.70;99.90;;;;;;4981028;28;20133;-82
2021/10/17 12:20:14;;;;;;;10.20;6.28;;;15.80;99.90;;;;;;4980956;28;20110;-80
2021/10/17 12:22:43;;;;;;;10.88;5.95;;;15.90;99.90;;;;;;4979059;28;20055;-79
2021/10/17 12:25:13;;;;;;;8.82;4.60;;;15.90;99.90;;;;;;4979437;28;20116;-80
2021/10/17 12:27:43;;;;;;;8.63;4.95;;;15.90;99.90;;;;;;4980181;28;20047;-80
2021/10/17 12:30:12;;;;;;;7.68;5.25;;;16.00;99.90;;;;;;4981249;28;20133;-80
2021/10/17 12:32:44;;;;;;;8.73;5.60;;;16.00;99.90;;;;;;4980499;28;20134;-80
2021/10/17 12:35:33;;;;;;;11.10;6.80;;;16.00;99.90;;;;;;4979615;28;20133;-80
2021/10/17 12:38:09;;;;;;;7.35;4.55;;;16.20;99.90;;;;;;4974912;28;20527;-79
2021/10/17 12:40:51;;;;;;;6.32;4.78;;;16.20;99.90;;;;;;4980212;28;20133;-80
2021/10/17 12:43:24;;;;;;;5.70;4.43;;;16.20;99.90;;;;;;4979910;28;20057;-80